Time;durP1;ratioP1;P1;durP2;ratioP2;P2;SDS_P1;SDS_P2;PMS_P1;PMS_P2;Temp;Humidity;BMP_temperature;BMP_pressure;BME280_temperature;BME280_humidity;BME280_pressure;Samples;Min_cycle;Max_cycle;Signal;HPM_P1;HPM_P2
2023/01/26 00:03:35;;;;;;;6.20;4.80;;;;;;;18.64;40.46;102463.72;16130456;19;129686;-53
2023/01/26 00:08:57;;;;;;;6.05;4.82;;;;;;;18.57;40.71;102451.78;16129668;19;130896;-51
2023/01/26 00:14:19;;;;;;;7.20;4.60;;;;;;;18.53;40.85;102456.03;16127027;19;129639;-52
2023/01/26 00:19:41;;;;;;;6.72;4.43;;;;;;;18.47;40.85;102438.31;16127138;19;129652;-51
2023/01/26 00:25:03;;;;;;;5.30;4.25;;;;;;;18.42;40.62;102427.84;16126382;19;131079;-55
2023/01/26 00:30:25;;;;;;;6.55;5.00;;;;;;;18.37;40.75;102418.44;16125993;19;129992;-54
2023/01/26 00:35:56;;;;;;;5.07;4.60;;;;;;;18.34;40.76;102413.28;16126782;19;131510;-55
2023/01/26 00:46:58;;;;;;;5.72;4.68;;;;;;;18.24;40.36;102399.81;16126912;19;129450;-55
2023/01/26 00:52:20;;;;;;;6.70;4.75;;;;;;;18.22;40.63;102396.41;16125626;19;130318;-54
2023/01/26 00:57:41;;;;;;;8.68;5.55;;;;;;;18.18;40.54;102386.81;16125395;19;129737;-55
2023/01/26 01:03:05;;;;;;;5.65;4.93;;;;;;;18.16;40.49;102378.69;16124604;19;129517;-51
2023/01/26 01:08:27;;;;;;;5.15;4.55;;;;;;;18.10;40.75;102374.84;16121242;19;131198;-51
2023/01/26 01:13:48;;;;;;;5.60;4.72;;;;;;;18.08;40.74;102377.00;16124869;19;134078;-51
2023/01/26 01:19:15;;;;;;;5.75;4.68;;;;;;;18.06;40.60;102376.34;16125515;19;130073;-53
2023/01/26 01:24:37;;;;;;;6.00;5.05;;;;;;;18.03;40.70;102373.97;16122817;19;130056;-52
2023/01/26 01:29:59;;;;;;;5.32;4.47;;;;;;;18.00;40.72;102379.91;16124774;19;131859;-52
2023/01/26 01:35:21;;;;;;;5.20;4.70;;;;;;;17.96;40.33;102375.88;16123276;19;128953;-55
2023/01/26 01:40:42;;;;;;;5.25;4.75;;;;;;;17.94;40.73;102375.22;16121334;19;129793;-53
2023/01/26 01:46:12;;;;;;;5.47;4.63;;;;;;;17.92;40.68;102372.66;16126247;19;130811;-52
2023/01/26 01:51:40;;;;;;;4.70;4.22;;;;;;;17.89;40.44;102366.66;16120180;19;131104;-51
2023/01/26 01:57:14;;;;;;;5.85;4.30;;;;;;;17.84;40.42;102359.84;16125132;19;129534;-53
2023/01/26 02:02:36;;;;;;;4.93;4.43;;;;;;;17.81;40.52;102370.47;16123064;19;129495;-49
2023/01/26 02:08:00;;;;;;;8.82;4.53;;;;;;;17.78;40.79;102366.19;16124657;19;130413;-51
2023/01/26 02:13:23;;;;;;;5.07;4.38;;;;;;;17.75;40.64;102361.06;16122251;19;129383;-54
2023/01/26 02:18:45;;;;;;;6.22;4.93;;;;;;;17.73;40.70;102351.28;16121969;19;129489;-53
2023/01/26 02:24:23;;;;;;;4.80;4.30;;;;;;;17.70;40.68;102352.53;16116540;19;129912;-54
2023/01/26 02:29:45;;;;;;;5.38;4.00;;;;;;;17.67;40.50;102345.47;16117429;19;131223;-55
2023/01/26 02:35:08;;;;;;;5.13;4.60;;;;;;;17.65;40.88;102342.09;16118888;19;132829;-57
2023/01/26 02:40:40;;;;;;;5.43;4.28;;;;;;;17.65;40.50;102349.53;16120609;19;129651;-60
2023/01/26 02:46:02;;;;;;;4.22;3.60;;;;;;;17.62;40.52;102347.16;16120219;19;129622;-59
2023/01/26 02:51:23;;;;;;;4.72;3.92;;;;;;;17.56;40.57;102335.00;16114306;19;130760;-52
2023/01/26 02:56:45;;;;;;;4.53;3.80;;;;;;;17.55;40.99;102338.81;16116812;19;130424;-55
2023/01/26 03:02:08;;;;;;;5.38;4.20;;;;;;;17.53;40.69;102341.78;16116365;19;131282;-53
2023/01/26 03:07:30;;;;;;;3.90;3.55;;;;;;;17.52;40.57;102345.59;16117020;19;129565;-54
2023/01/26 03:12:52;;;;;;;4.63;3.83;;;;;;;17.49;40.54;102339.63;16116813;19;130098;-54
2023/01/26 03:29:36;;;;;;;4.03;3.30;;;;;;;17.42;40.90;102336.81;16116235;19;132387;-53
2023/01/26 03:34:58;;;;;;;3.70;3.20;;;;;;;17.40;41.03;102336.16;16112934;19;130266;-51
2023/01/26 03:57:24;;;;;;;3.80;3.30;;;;;;;17.31;40.83;102321.63;16129587;19;129322;-54
2023/01/26 04:08:27;;;;;;;3.75;3.33;;;;;;;17.28;40.60;102316.53;16128834;19;129682;-53
2023/01/26 04:25:14;;;;;;;3.88;3.28;;;;;;;17.22;40.80;102317.31;16130666;19;130344;-56
2023/01/26 04:30:36;;;;;;;2.95;2.63;;;;;;;17.20;41.11;102316.66;16126160;19;129086;-55
2023/01/26 04:36:06;;;;;;;3.10;2.80;;;;;;;17.19;40.72;102318.59;16129332;19;130326;-52
2023/01/26 04:41:29;;;;;;;3.63;3.08;;;;;;;17.18;40.96;102304.94;16126661;19;130065;-53
2023/01/26 04:46:51;;;;;;;4.38;2.75;;;;;;;17.16;41.01;102302.41;16129258;19;130244;-50
2023/01/26 04:52:13;;;;;;;2.97;2.60;;;;;;;17.15;40.97;102300.69;16124558;19;129230;-55
2023/01/26 04:57:35;;;;;;;3.50;2.70;;;;;;;17.13;41.08;102294.50;16126488;19;130809;-53
2023/01/26 05:02:56;;;;;;;3.15;2.85;;;;;;;17.11;40.66;102304.91;16128158;19;129536;-54
2023/01/26 05:08:19;;;;;;;2.97;2.58;;;;;;;17.11;40.71;102298.53;16123682;19;129596;-57
2023/01/26 05:13:41;;;;;;;2.83;2.45;;;;;;;17.09;40.93;102301.50;16125018;19;130691;-59
2023/01/26 05:19:03;;;;;;;3.30;3.00;;;;;;;17.07;40.96;102296.16;16126978;19;129788;-59
2023/01/26 05:24:25;;;;;;;2.40;2.20;;;;;;;17.06;40.79;102299.13;16127348;19;130791;-59
2023/01/26 05:29:47;;;;;;;2.95;2.65;;;;;;;17.04;41.05;102293.81;16126142;19;130184;-58
2023/01/26 05:35:09;;;;;;;2.95;2.40;;;;;;;17.03;41.08;102291.25;16124899;19;130325;-60
2023/01/26 05:40:31;;;;;;;2.35;2.15;;;;;;;17.01;41.15;102305.28;16124682;19;130463;-60
2023/01/26 05:45:53;;;;;;;2.47;2.28;;;;;;;16.99;41.13;102307.38;16126942;19;129681;-55
2023/01/26 05:51:14;;;;;;;3.05;2.30;;;;;;;16.98;40.83;102311.19;16123869;19;129775;-51
2023/01/26 05:56:36;;;;;;;2.60;2.40;;;;;;;16.97;40.70;102316.94;16121446;19;131243;-55
2023/01/26 06:01:58;;;;;;;2.88;2.58;;;;;;;16.96;41.03;102318.00;16124619;19;130076;-53
2023/01/26 06:07:20;;;;;;;2.22;2.03;;;;;;;16.95;40.71;102327.34;16121402;19;130584;-55
2023/01/26 06:12:42;;;;;;;2.55;2.35;;;;;;;16.93;40.92;102319.22;16119556;19;129365;-54
2023/01/26 06:18:04;;;;;;;2.45;2.20;;;;;;;16.90;41.04;102326.03;16116673;19;131124;-51
2023/01/26 06:23:26;;;;;;;3.83;3.05;;;;;;;16.89;40.61;102335.38;16120409;19;129116;-55
2023/01/26 06:28:48;;;;;;;5.90;3.30;;;;;;;16.93;40.26;102335.81;16120640;19;129598;-52
2023/01/26 06:34:10;;;;;;;4.70;3.00;;;;;;;16.99;40.00;102334.16;16118551;19;129703;-53
2023/01/26 06:39:31;;;;;;;7.50;3.20;;;;;;;17.05;39.59;102338.91;16114772;19;130083;-51
2023/01/26 06:44:53;;;;;;;5.63;3.17;;;;;;;17.06;39.62;102344.22;16120341;19;129933;-53
2023/01/26 06:50:18;;;;;;;9.30;3.50;;;;;;;17.05;39.59;102347.19;16116219;19;128990;-49
2023/01/26 06:55:40;;;;;;;6.20;3.85;;;;;;;17.01;39.47;102348.66;16115856;19;131013;-51
2023/01/26 07:01:03;;;;;;;4.38;3.60;;;;;;;16.99;39.60;102354.38;16120213;19;130643;-53
2023/01/26 07:06:25;;;;;;;3.67;3.22;;;;;;;16.97;39.41;102352.88;16116868;19;129483;-52
2023/01/26 07:11:47;;;;;;;4.90;3.38;;;;;;;16.94;39.56;102354.13;16119002;19;129518;-50
2023/01/26 07:17:09;;;;;;;4.75;3.10;;;;;;;16.91;39.56;102351.78;16117346;19;133560;-54
2023/01/26 07:22:31;;;;;;;4.53;3.22;;;;;;;16.88;39.53;102358.53;16114646;19;129385;-55
2023/01/26 07:27:56;;;;;;;5.85;3.25;;;;;;;16.88;39.25;102358.53;16118891;19;130113;-51
2023/01/26 07:33:18;;;;;;;4.70;2.70;;;;;;;16.87;39.61;102364.28;16132336;19;130569;-55
2023/01/26 07:38:40;;;;;;;5.65;2.97;;;;;;;16.84;39.67;102365.53;16129462;19;131154;-53
2023/01/26 07:44:03;;;;;;;4.15;2.95;;;;;;;16.82;39.90;102362.13;16131700;19;129377;-48
2023/01/26 07:49:25;;;;;;;4.63;2.80;;;;;;;16.81;39.53;102365.06;16129411;19;129254;-52
2023/01/26 07:54:47;;;;;;;3.78;3.13;;;;;;;16.79;39.57;102368.03;16129661;19;130283;-48
2023/01/26 08:00:10;;;;;;;3.15;2.80;;;;;;;16.77;39.43;102379.31;16131603;19;135819;-50
2023/01/26 08:05:32;;;;;;;3.60;2.65;;;;;;;16.76;39.58;102376.72;16128725;19;129781;-50
2023/01/26 08:10:56;;;;;;;3.92;2.72;;;;;;;16.73;39.83;102394.56;16128438;19;129819;-47
2023/01/26 08:16:17;;;;;;;4.25;2.65;;;;;;;16.69;40.23;102393.22;16127682;19;131015;-51
2023/01/26 08:21:39;;;;;;;3.75;1.88;;;;;;;16.75;40.20;102394.34;16127471;19;129673;-49
2023/01/26 08:27:01;;;;;;;2.58;2.10;;;;;;;16.93;40.23;102396.63;16126896;19;131181;-46
2023/01/26 08:32:23;;;;;;;3.17;1.63;;;;;;;17.17;40.31;102409.19;16128973;19;131380;-48
2023/01/26 08:37:45;;;;;;;1.73;1.50;;;;;;;17.38;40.05;102410.19;16130435;19;128905;-47
2023/01/26 08:43:07;;;;;;;1.92;1.70;;;;;;;17.53;40.08;102412.88;16124913;19;130981;-52
2023/01/26 08:48:30;;;;;;;3.40;2.00;;;;;;;17.59;39.84;102406.53;16127116;19;130800;-49
2023/01/26 08:53:53;;;;;;;3.28;1.90;;;;;;;17.59;39.91;102412.06;16126368;19;130561;-51
2023/01/26 08:59:15;;;;;;;2.08;1.60;;;;;;;17.57;39.80;102416.13;16130874;19;130552;-49
2023/01/26 09:04:36;;;;;;;1.60;1.50;;;;;;;17.52;40.03;102414.78;16125545;19;129468;-47
2023/01/26 09:09:58;;;;;;;1.83;1.60;;;;;;;17.46;40.05;102426.66;16125867;19;129411;-51
2023/01/26 09:15:20;;;;;;;1.98;1.55;;;;;;;17.40;40.05;102421.91;16124973;19;129269;-49
2023/01/26 09:20:42;;;;;;;2.20;1.83;;;;;;;17.35;40.20;102417.00;16127239;19;129465;-47
2023/01/26 09:26:03;;;;;;;2.65;1.50;;;;;;;17.28;40.07;102421.63;16124328;19;131746;-47
2023/01/26 09:31:25;;;;;;;1.65;1.40;;;;;;;17.23;39.67;102426.91;16123617;19;129479;-51
2023/01/26 09:36:47;;;;;;;1.73;1.63;;;;;;;17.18;39.60;102419.19;16119768;19;129267;-49
2023/01/26 09:42:27;;;;;;;2.05;1.85;;;;;;;17.13;39.89;102426.38;16124555;19;130811;-49
2023/01/26 09:48:06;;;;;;;1.60;1.50;;;;;;;17.09;39.37;102425.94;16121282;19;132015;-50
2023/01/26 09:53:40;;;;;;;1.70;1.60;;;;;;;17.03;39.80;102423.97;16122227;19;129240;-49
2023/01/26 09:59:16;;;;;;;2.45;1.60;;;;;;;16.99;39.65;102422.63;16117943;19;129099;-53
2023/01/26 10:04:42;;;;;;;2.25;1.90;;;;;;;16.92;39.72;102433.66;16123851;19;130904;-56
2023/01/26 10:10:03;;;;;;;;;;;;;;;16.86;39.99;102424.22;16127396;19;131076;-58
2023/01/26 10:15:30;;;;;;;2.17;1.90;;;;;;;16.85;39.74;102421.66;16125525;19;130131;-52
2023/01/26 10:20:55;;;;;;;2.33;2.13;;;;;;;16.82;39.82;102427.56;16128048;19;129849;-49
2023/01/26 10:26:20;;;;;;;3.38;1.60;;;;;;;16.79;39.70;102428.00;16122578;19;129059;-49
2023/01/26 10:31:43;;;;;;;4.07;2.30;;;;;;;16.77;39.71;102428.16;16121332;19;129370;-46
2023/01/26 10:37:29;;;;;;;2.60;1.95;;;;;;;16.77;39.97;102433.69;16124100;19;129658;-53
2023/01/26 10:42:58;;;;;;;3.63;2.30;;;;;;;16.75;39.81;102439.44;16121552;19;130862;-51
2023/01/26 10:48:23;;;;;;;8.30;5.20;;;;;;;16.75;39.00;102442.19;16117949;19;129597;-49
2023/01/26 10:53:44;;;;;;;6.85;3.92;;;;;;;16.76;39.01;102437.50;16118990;19;130232;-52
2023/01/26 10:59:07;;;;;;;6.07;4.50;;;;;;;16.72;38.82;102431.53;16122379;19;130032;-52
2023/01/26 11:04:29;;;;;;;9.52;4.97;;;;;;;16.70;38.86;102435.56;16116367;19;132380;-47
2023/01/26 11:09:52;;;;;;;6.55;4.32;;;;;;;16.68;38.98;102430.19;16113876;19;129818;-51
2023/01/26 11:15:21;;;;;;;9.60;4.68;;;;;;;16.66;38.84;102425.91;16114716;19;130449;-47
2023/01/26 11:21:01;;;;;;;8.88;5.25;;;;;;;16.62;38.91;102417.16;16114642;19;129478;-49
2023/01/26 11:26:39;;;;;;;7.43;4.25;;;;;;;16.60;38.83;102425.66;16116008;19;129420;-48
2023/01/26 11:32:26;;;;;;;8.50;5.00;;;;;;;16.57;38.67;102431.56;16116234;19;130442;-47
2023/01/26 11:37:50;;;;;;;;;;;;;;;16.50;38.65;102425.09;16116086;19;129480;-52
2023/01/26 11:43:39;;;;;;;9.07;6.30;;;;;;;16.52;38.37;102434.03;16117647;19;131091;-46
2023/01/26 11:49:35;;;;;;;8.40;5.20;;;;;;;16.47;38.20;102423.56;16113138;19;129717;-50
2023/01/26 11:55:08;;;;;;;10.20;5.90;;;;;;;16.45;38.58;102424.84;16114712;19;130783;-51
2023/01/26 12:00:47;;;;;;;9.68;5.80;;;;;;;16.46;38.54;102413.56;16114172;19;131890;-51
2023/01/26 12:06:27;;;;;;;11.23;6.07;;;;;;;16.44;38.24;102392.72;16114760;19;129607;-50
2023/01/26 12:12:18;;;;;;;11.13;5.57;;;;;;;16.42;38.49;102392.06;16115472;19;129249;-50
2023/01/26 12:18:03;;;;;;;7.90;5.10;;;;;;;16.41;38.69;102391.22;16116727;19;129203;-49
2023/01/26 12:23:38;;;;;;;11.18;5.10;;;;;;;16.51;38.82;102381.75;16122059;19;130242;-51
2023/01/26 12:29:08;;;;;;;7.70;4.40;;;;;;;16.64;39.06;102376.38;16119819;19;131435;-47
2023/01/26 12:34:32;;;;;;;7.13;4.47;;;;;;;16.80;38.83;102375.28;16116741;19;131311;-51
2023/01/26 12:39:57;;;;;;;7.18;4.53;;;;;;;16.96;38.49;102365.00;16117258;19;129525;-49
2023/01/26 12:45:26;;;;;;;4.93;3.70;;;;;;;17.06;38.09;102362.72;16118026;19;130744;-49
2023/01/26 12:51:04;;;;;;;7.15;4.05;;;;;;;17.14;38.02;102354.28;16116825;19;131319;-47
2023/01/26 12:56:49;;;;;;;7.40;3.80;;;;;;;17.15;38.24;102355.16;16128551;19;129173;-47
2023/01/26 13:02:14;;;;;;;7.57;4.00;;;;;;;17.12;37.92;102350.00;16127246;19;129193;-50
2023/01/26 13:07:38;;;;;;;6.63;3.30;;;;;;;17.08;38.03;102346.81;16123947;19;129929;-49
2023/01/26 13:13:29;;;;;;;8.27;3.55;;;;;;;17.02;38.09;102344.81;16125759;19;129553;-49
2023/01/26 13:18:55;;;;;;;6.05;3.40;;;;;;;16.95;38.09;102350.31;16126153;19;129914;-49
2023/01/26 13:24:17;;;;;;;7.32;3.20;;;;;;;16.90;37.82;102347.31;16123996;19;129620;-51
2023/01/26 13:29:52;;;;;;;10.18;3.50;;;;;;;16.86;37.51;102346.81;16120797;19;129931;-47
2023/01/26 13:35:23;;;;;;;11.63;3.47;;;;;;;16.81;37.65;102349.34;16125543;19;129511;-50
2023/01/26 13:40:48;;;;;;;6.70;2.90;;;;;;;16.75;37.90;102345.47;16123886;19;129594;-51
2023/01/26 13:46:19;;;;;;;10.20;3.00;;;;;;;16.72;37.45;102348.63;16114340;19;131472;-50
2023/01/26 13:51:42;;;;;;;7.82;2.47;;;;;;;16.67;37.34;102350.28;16120812;19;129440;-49
2023/01/26 13:57:06;;;;;;;6.85;2.50;;;;;;;16.63;37.56;102342.34;16122789;19;128920;-51
2023/01/26 14:02:33;;;;;;;6.65;2.13;;;;;;;16.61;37.58;102338.94;16124010;19;130422;-48
2023/01/26 14:07:55;;;;;;;6.43;2.42;;;;;;;16.58;37.67;102350.38;16121812;19;130006;-51
2023/01/26 14:13:31;;;;;;;7.80;2.15;;;;;;;16.59;37.50;102356.75;16123520;19;130547;-53
2023/01/26 14:19:08;;;;;;;10.73;2.75;;;;;;;16.55;37.43;102352.69;16123187;19;133461;-48
2023/01/26 14:24:33;;;;;;;6.20;2.28;;;;;;;16.52;37.72;102351.16;16114858;19;130022;-50
2023/01/26 14:29:56;;;;;;;8.90;2.10;;;;;;;16.50;37.57;102353.25;16114588;19;131077;-49
2023/01/26 14:35:23;;;;;;;10.63;2.63;;;;;;;16.49;37.38;102361.75;16116238;19;129743;-50
2023/01/26 14:40:47;;;;;;;12.25;2.42;;;;;;;16.45;37.47;102351.09;16119657;19;129848;-49
2023/01/26 14:46:17;;;;;;;6.95;1.80;;;;;;;16.44;37.48;102349.38;16114443;19;131676;-49
2023/01/26 14:51:44;;;;;;;7.88;1.83;;;;;;;16.42;37.07;102350.63;16119941;19;129995;-53
2023/01/26 14:57:06;;;;;;;7.38;1.95;;;;;;;16.40;37.46;102355.50;16119189;19;129552;-48
2023/01/26 15:02:41;;;;;;;9.13;2.08;;;;;;;16.39;37.34;102364.81;16119630;19;129493;-48
2023/01/26 15:08:05;;;;;;;7.38;2.25;;;;;;;16.35;37.44;102366.28;16116320;19;129772;-49
2023/01/26 15:13:29;;;;;;;10.75;3.13;;;;;;;16.32;37.31;102362.88;16117322;19;130037;-51
2023/01/26 15:18:59;;;;;;;8.40;1.98;;;;;;;16.32;36.99;102368.38;16114899;19;129902;-51
2023/01/26 15:24:21;;;;;;;9.23;2.42;;;;;;;16.28;37.26;102372.59;16107819;19;130004;-50
2023/01/26 15:29:43;;;;;;;9.30;2.10;;;;;;;16.26;37.35;102380.19;16115163;19;131074;-52
2023/01/26 15:35:24;;;;;;;8.55;1.70;;;;;;;16.24;37.37;102368.53;16115196;19;129780;-48
2023/01/26 15:40:45;;;;;;;7.43;1.80;;;;;;;16.22;37.32;102362.34;16115954;19;129878;-50
2023/01/26 15:46:09;;;;;;;6.68;1.70;;;;;;;16.22;37.24;102356.81;16113210;19;129418;-50
2023/01/26 15:51:30;;;;;;;6.93;1.70;;;;;;;16.24;37.33;102363.00;16124615;19;129818;-50
2023/01/26 15:56:52;;;;;;;6.32;1.85;;;;;;;16.22;36.93;102373.38;16129791;19;129290;-53
2023/01/26 16:02:17;;;;;;;6.68;1.50;;;;;;;16.22;37.01;102364.22;16131041;19;131137;-52
2023/01/26 16:07:39;;;;;;;7.47;1.37;;;;;;;16.21;36.91;102376.31;16128255;19;129212;-51
2023/01/26 16:13:00;;;;;;;5.60;1.20;;;;;;;16.20;37.14;102385.66;16129322;19;131248;-48
2023/01/26 16:18:22;;;;;;;5.05;1.52;;;;;;;16.18;37.09;102379.50;16122370;19;130532;-50
2023/01/26 16:23:45;;;;;;;6.03;1.58;;;;;;;16.14;36.95;102381.75;16122508;19;130979;-48
2023/01/26 16:29:06;;;;;;;7.00;1.70;;;;;;;16.13;36.91;102385.56;16123048;19;129634;-47
2023/01/26 16:34:28;;;;;;;7.82;1.75;;;;;;;16.10;37.08;102385.97;16123353;19;134125;-48
2023/01/26 16:39:50;;;;;;;8.23;1.30;;;;;;;16.08;36.87;102388.06;16126211;19;129616;-48
2023/01/26 16:45:19;;;;;;;5.85;1.60;;;;;;;16.07;36.94;102383.59;16126681;19;131744;-49
2023/01/26 16:50:43;;;;;;;5.50;1.23;;;;;;;16.05;36.82;102393.97;16126586;19;129376;-48
2023/01/26 16:56:09;;;;;;;6.63;1.70;;;;;;;16.07;37.02;102394.63;16125212;19;130445;-51
2023/01/26 17:01:36;;;;;;;5.78;1.30;;;;;;;16.21;36.55;102404.81;16124365;19;130271;-47
2023/01/26 17:06:58;;;;;;;7.82;1.50;;;;;;;16.43;36.60;102396.53;16123013;19;129828;-50
2023/01/26 17:12:19;;;;;;;5.72;1.27;;;;;;;16.70;36.03;102399.63;16125240;19;129036;-50
2023/01/26 17:17:43;;;;;;;8.27;2.15;;;;;;;16.97;35.81;102399.88;16125861;19;130784;-52
2023/01/26 17:23:05;;;;;;;8.82;2.10;;;;;;;17.21;35.60;102401.34;16127343;19;129833;-48
2023/01/26 17:28:27;;;;;;;4.85;1.80;;;;;;;17.39;35.00;102400.84;16122004;19;129648;-49
2023/01/26 17:33:49;;;;;;;7.30;1.92;;;;;;;17.49;35.31;102411.56;16124605;19;133459;-49
2023/01/26 17:39:12;;;;;;;9.98;1.98;;;;;;;17.59;35.17;102397.41;16126418;19;129601;-48
2023/01/26 17:44:34;;;;;;;6.82;2.05;;;;;;;17.92;34.62;102408.63;16119983;19;129809;-49
2023/01/26 17:49:56;;;;;;;4.03;1.42;;;;;;;18.20;34.47;102406.88;16119004;19;130283;-53
2023/01/26 17:55:17;;;;;;;4.53;1.13;;;;;;;18.35;34.47;102399.22;16113701;19;130199;-52
2023/01/26 18:00:39;;;;;;;7.07;1.40;;;;;;;18.36;34.29;102409.25;16109125;19;130177;-47
2023/01/26 18:06:01;;;;;;;7.38;1.77;;;;;;;18.34;33.99;102413.28;16113010;19;129508;-52
2023/01/26 18:11:23;;;;;;;4.82;1.58;;;;;;;18.27;33.80;102418.81;16121130;19;129798;-55
2023/01/26 18:16:44;;;;;;;5.75;1.27;;;;;;;18.17;33.54;102423.88;16122209;19;129282;-54
2023/01/26 18:22:06;;;;;;;3.20;1.38;;;;;;;18.05;33.59;102416.16;16118602;19;129179;-56
2023/01/26 18:27:28;;;;;;;3.60;1.10;;;;;;;17.97;33.54;102419.97;16111707;19;130891;-48
2023/01/26 18:32:50;;;;;;;4.72;1.27;;;;;;;18.00;33.76;102418.69;16108310;19;131257;-48
2023/01/26 18:38:12;;;;;;;2.95;0.98;;;;;;;18.04;33.45;102417.22;16033155;19;147722;-53
2023/01/26 18:43:34;;;;;;;3.10;0.80;;;;;;;18.04;33.91;102414.47;16112667;19;129646;-48
2023/01/26 18:48:59;;;;;;;3.05;1.00;;;;;;;18.00;33.83;102410.38;16115737;19;131898;-48
2023/01/26 18:54:21;;;;;;;3.35;1.00;;;;;;;18.00;33.90;102407.63;16113571;19;130766;-48
2023/01/26 18:59:43;;;;;;;3.03;0.85;;;;;;;18.13;33.90;102409.59;16112741;19;129944;-49
2023/01/26 19:05:06;;;;;;;2.05;0.93;;;;;;;18.38;33.74;102404.34;16113586;19;131364;-46
2023/01/26 19:10:28;;;;;;;2.28;0.70;;;;;;;18.74;33.20;102410.66;16110917;19;129888;-49
2023/01/26 19:15:49;;;;;;;1.92;0.50;;;;;;;19.08;33.17;102417.91;16110873;19;129788;-50
2023/01/26 19:21:11;;;;;;;3.05;0.98;;;;;;;19.42;33.09;102409.63;16111035;19;130571;-54
2023/01/26 19:26:33;;;;;;;3.30;0.90;;;;;;;19.74;32.42;102411.69;16124206;19;133612;-55
2023/01/26 19:31:55;;;;;;;3.10;0.68;;;;;;;19.93;32.43;102418.25;16130986;19;131735;-49
2023/01/26 19:37:17;;;;;;;3.33;1.05;;;;;;;19.99;32.39;102418.25;16127262;19;130177;-55
2023/01/26 19:42:39;;;;;;;10.98;1.25;;;;;;;19.93;32.34;102415.47;16125937;19;129645;-53
2023/01/26 19:48:01;;;;;;;19.60;1.33;;;;;;;19.79;32.77;102418.28;16129768;19;129633;-55
2023/01/26 19:53:22;;;;;;;9.52;1.23;;;;;;;19.63;33.18;102416.84;16127320;19;129717;-56
2023/01/26 19:58:56;;;;;;;11.90;1.73;;;;;;;19.53;33.43;102422.00;16130682;19;129773;-53
2023/01/26 20:04:17;;;;;;;14.95;1.13;;;;;;;19.52;33.20;102411.97;16127459;19;130001;-55
2023/01/26 20:09:39;;;;;;;13.90;1.42;;;;;;;19.75;33.60;102402.28;16127010;19;130600;-52
2023/01/26 20:15:02;;;;;;;8.63;1.10;;;;;;;20.08;33.26;102404.13;16123853;19;132814;-49
2023/01/26 20:20:24;;;;;;;7.32;1.10;;;;;;;20.39;32.75;102402.47;16125793;19;129635;-51
2023/01/26 20:25:47;;;;;;;9.32;1.58;;;;;;;20.60;32.51;102404.06;16127854;19;129837;-48
2023/01/26 20:31:14;;;;;;;8.05;1.58;;;;;;;20.70;32.63;102398.00;16128982;19;130413;-49
2023/01/26 20:36:41;;;;;;;8.93;1.25;;;;;;;20.66;32.16;102397.59;16121859;19;130824;-49
2023/01/26 20:42:03;;;;;;;7.45;1.08;;;;;;;20.55;32.62;102390.84;16126273;19;129963;-45
2023/01/26 20:47:25;;;;;;;4.65;1.00;;;;;;;20.45;32.57;102390.47;16126365;19;130208;-47
2023/01/26 20:52:46;;;;;;;5.72;1.23;;;;;;;20.35;32.60;102387.31;16125554;19;129376;-50
2023/01/26 20:58:08;;;;;;;3.53;1.00;;;;;;;20.23;32.57;102388.03;16124061;19;133021;-48
2023/01/26 21:03:30;;;;;;;4.03;0.93;;;;;;;20.16;32.71;102401.09;16123009;19;132098;-50
2023/01/26 21:08:55;;;;;;;7.38;1.20;;;;;;;20.04;32.93;102400.09;16120854;19;129483;-46
2023/01/26 21:14:17;;;;;;;5.88;1.10;;;;;;;19.92;32.74;102392.41;16122062;19;129498;-49
2023/01/26 21:19:38;;;;;;;8.07;1.20;;;;;;;19.79;33.11;102387.75;16123437;19;130884;-47
2023/01/26 21:25:00;;;;;;;11.68;1.30;;;;;;;19.68;33.14;102380.97;16122389;19;129349;-48
2023/01/26 21:30:22;;;;;;;13.18;1.52;;;;;;;19.56;33.27;102370.72;16120477;19;129690;-46
2023/01/26 21:35:44;;;;;;;9.52;1.70;;;;;;;19.46;33.22;102373.94;16122108;19;129908;-49
2023/01/26 21:46:52;;;;;;;17.10;1.60;;;;;;;19.27;33.66;102373.78;16118195;19;130587;-46
2023/01/26 22:03:33;;;;;;;11.43;1.50;;;;;;;18.84;33.78;102357.53;16115197;19;133430;-50
2023/01/26 22:08:57;;;;;;;11.23;1.60;;;;;;;18.70;33.56;102359.47;16111792;19;129793;-51
2023/01/26 22:14:22;;;;;;;8.48;1.70;;;;;;;18.58;34.05;102348.16;16113072;19;130748;-48
2023/01/26 22:19:43;;;;;;;14.63;1.87;;;;;;;18.47;34.63;102355.19;16108997;19;129960;-48
2023/01/26 22:25:06;;;;;;;6.82;1.33;;;;;;;18.37;34.66;102343.63;16114195;19;130298;-48
2023/01/26 22:30:27;;;;;;;7.15;1.25;;;;;;;18.26;34.99;102351.47;16120396;19;129448;-51
2023/01/26 22:35:57;;;;;;;10.15;1.17;;;;;;;18.20;35.50;102351.47;16123279;19;129479;-49
2023/01/26 22:41:25;;;;;;;6.07;1.30;;;;;;;18.11;35.21;102359.09;16118912;19;129717;-49
2023/01/26 22:46:47;;;;;;;6.85;1.25;;;;;;;18.03;35.57;102362.91;16119690;19;130479;-47
2023/01/26 22:52:09;;;;;;;7.72;1.48;;;;;;;17.98;35.62;102366.28;16119847;19;129739;-50
2023/01/26 22:57:30;;;;;;;6.70;1.58;;;;;;;17.94;36.13;102369.69;16118089;19;129673;-52
2023/01/26 23:02:52;;;;;;;7.55;1.40;;;;;;;17.88;36.29;102363.06;16117668;19;131061;-51
2023/01/26 23:08:14;;;;;;;5.07;1.42;;;;;;;17.81;36.08;102365.78;16116228;19;130949;-50
2023/01/26 23:13:36;;;;;;;8.05;1.58;;;;;;;17.75;36.49;102361.06;16114141;19;130250;-51
2023/01/26 23:19:00;;;;;;;6.07;1.30;;;;;;;17.72;36.46;102361.50;16114283;19;129314;-46
2023/01/26 23:24:22;;;;;;;5.53;1.10;;;;;;;17.64;36.21;102358.88;16115619;19;130518;-50
2023/01/26 23:29:43;;;;;;;8.02;1.40;;;;;;;17.61;36.59;102359.28;16114485;19;130637;-46
2023/01/26 23:35:05;;;;;;;3.97;1.30;;;;;;;17.57;36.81;102358.00;16114725;19;129564;-47
2023/01/26 23:40:28;;;;;;;5.18;1.20;;;;;;;17.52;36.66;102359.44;16114579;19;129819;-48
2023/01/26 23:45:50;;;;;;;5.15;1.23;;;;;;;17.48;36.72;102363.66;16116641;19;129754;-50
2023/01/26 23:51:12;;;;;;;6.05;1.30;;;;;;;17.44;37.21;102359.59;16114140;19;129702;-48
2023/01/26 23:56:34;;;;;;;3.80;1.00;;;;;;;17.41;36.82;102362.75;16111492;19;129868;-47
